Archival Weather

Luke Afb

Glendale, Arizona (KLUF)

Report from: Friday, April 19, 2024 7:55 AM MST
Current time: Monday, June 24, 2024 4:13 AM MST

Current weather – Weather history – Daily summaries
Weather forecast

Temperature20.5°C (68.9°F)
Dew point1.4°C (34.5°F)
Winds 4 kts (2.1 m/s, 4.6 mph) North-Northwest (340°)
Visibility10 mi. (16.1 km)
Clouds Sky clear
Altimeter29.86 in.Hg (1011 mB)
Relative humidity28 %
Density altitude857 ft. (261 m)
Sea-level pressure101.0 kPa (1010 mB, 29.83 in.Hg)
Remarks Fully automated report
System requires maintenance
Automated weather observing station with precipitation discriminator
Pressure rising
Flight conditions Visual Meteorological Conditions
Raw dataKLUF 191455Z AUTO 34004KT 10SM CLR 21/01 A2986 RMK AO2 SLP100 T02050014 52012 $
An error has occurred. This application may no longer respond until reloaded. Reload 🗙